sensor_id;sensor_type;location;lat;lon;timestamp;pressure;altitude;pressure_sealevel;temperature;humidity
6224;BME280;3145;42.726;23.342;2023-02-18T00:01:00;96136.28;;;2.30;nan
6224;BME280;3145;42.726;23.342;2023-02-18T00:03:28;96131.06;;;2.30;nan
6224;BME280;3145;42.726;23.342;2023-02-18T00:05:55;96110.09;;;2.08;nan
6224;BME280;3145;42.726;23.342;2023-02-18T00:08:22;96149.03;;;2.22;nan
6224;BME280;3145;42.726;23.342;2023-02-18T00:10:48;96131.31;;;2.27;nan
6224;BME280;3145;42.726;23.342;2023-02-18T00:13:18;96124.88;;;2.20;nan
6224;BME280;3145;42.726;23.342;2023-02-18T00:15:44;96126.03;;;2.16;nan
6224;BME280;3145;42.726;23.342;2023-02-18T00:18:11;96071.22;;;1.82;nan
6224;BME280;3145;42.726;23.342;2023-02-18T00:20:38;96065.81;;;1.72;nan
6224;BME280;3145;42.726;23.342;2023-02-18T00:23:05;96111.09;;;1.95;nan
6224;BME280;3145;42.726;23.342;2023-02-18T00:25:32;96100.66;;;1.95;nan
6224;BME280;3145;42.726;23.342;2023-02-18T00:27:58;96101.41;;;1.97;nan
6224;BME280;3145;42.726;23.342;2023-02-18T00:30:26;96092.53;;;1.99;nan
6224;BME280;3145;42.726;23.342;2023-02-18T00:32:53;96087.22;;;2.01;nan
6224;BME280;3145;42.726;23.342;2023-02-18T00:35:20;96070.56;;;1.91;nan
6224;BME280;3145;42.726;23.342;2023-02-18T00:37:50;96068.06;;;1.89;nan
6224;BME280;3145;42.726;23.342;2023-02-18T00:40:17;96088.47;;;1.95;nan
6224;BME280;3145;42.726;23.342;2023-02-18T00:42:44;96095.25;;;1.98;nan
6224;BME280;3145;42.726;23.342;2023-02-18T00:45:10;96077.03;;;1.85;nan
6224;BME280;3145;42.726;23.342;2023-02-18T00:47:38;96081.84;;;1.79;nan
6224;BME280;3145;42.726;23.342;2023-02-18T00:50:06;96086.84;;;1.82;nan
6224;BME280;3145;42.726;23.342;2023-02-18T00:52:33;96078.94;;;1.83;nan
6224;BME280;3145;42.726;23.342;2023-02-18T00:55:00;96084.75;;;1.87;nan
6224;BME280;3145;42.726;23.342;2023-02-18T00:57:27;96064.78;;;1.75;nan
6224;BME280;3145;42.726;23.342;2023-02-18T00:59:53;95845.59;;;0.38;nan
6224;BME280;3145;42.726;23.342;2023-02-18T01:02:20;96088.50;;;1.83;nan
6224;BME280;3145;42.726;23.342;2023-02-18T01:04:48;96085.72;;;1.73;nan
6224;BME280;3145;42.726;23.342;2023-02-18T01:07:15;96092.75;;;1.35;nan
6224;BME280;3145;42.726;23.342;2023-02-18T01:09:41;96088.47;;;1.34;nan
6224;BME280;3145;42.726;23.342;2023-02-18T01:12:08;96079.84;;;1.34;nan
6224;BME280;3145;42.726;23.342;2023-02-18T01:14:35;96077.78;;;1.14;nan
6224;BME280;3145;42.726;23.342;2023-02-18T01:17:02;96071.94;;;1.10;nan
6224;BME280;3145;42.726;23.342;2023-02-18T01:19:28;96072.44;;;1.15;nan
6224;BME280;3145;42.726;23.342;2023-02-18T01:21:56;96079.63;;;1.12;nan
6224;BME280;3145;42.726;23.342;2023-02-18T01:24:23;96083.78;;;1.14;nan
6224;BME280;3145;42.726;23.342;2023-02-18T01:26:50;96060.72;;;1.10;nan
6224;BME280;3145;42.726;23.342;2023-02-18T01:29:17;96067.53;;;1.23;nan
6224;BME280;3145;42.726;23.342;2023-02-18T01:31:43;96069.22;;;1.24;nan
6224;BME280;3145;42.726;23.342;2023-02-18T01:34:10;96072.13;;;1.07;nan
6224;BME280;3145;42.726;23.342;2023-02-18T01:36:37;96067.97;;;1.05;nan
6224;BME280;3145;42.726;23.342;2023-02-18T01:39:05;96061.13;;;1.04;nan
6224;BME280;3145;42.726;23.342;2023-02-18T01:41:32;96075.47;;;1.09;nan
6224;BME280;3145;42.726;23.342;2023-02-18T01:44:16;95952.53;;;0.32;nan
6224;BME280;3145;42.726;23.342;2023-02-18T01:46:43;96088.38;;;1.11;nan
6224;BME280;3145;42.726;23.342;2023-02-18T01:49:12;96049.56;;;0.95;nan
6224;BME280;3145;42.726;23.342;2023-02-18T01:51:42;96083.06;;;1.12;nan
6224;BME280;3145;42.726;23.342;2023-02-18T01:54:16;96084.41;;;1.05;nan
6224;BME280;3145;42.726;23.342;2023-02-18T01:56:47;96086.72;;;1.10;nan
6224;BME280;3145;42.726;23.342;2023-02-18T01:59:17;96085.25;;;1.06;nan
6224;BME280;3145;42.726;23.342;2023-02-18T02:01:46;96082.97;;;1.01;nan
6224;BME280;3145;42.726;23.342;2023-02-18T02:04:13;96023.22;;;0.62;nan
6224;BME280;3145;42.726;23.342;2023-02-18T02:06:40;96070.28;;;0.84;nan
6224;BME280;3145;42.726;23.342;2023-02-18T02:09:10;96071.09;;;0.85;nan
6224;BME280;3145;42.726;23.342;2023-02-18T02:12:04;96066.13;;;0.82;nan
6224;BME280;3145;42.726;23.342;2023-02-18T02:14:49;96067.56;;;0.86;nan
6224;BME280;3145;42.726;23.342;2023-02-18T02:17:25;96075.69;;;0.94;nan
6224;BME280;3145;42.726;23.342;2023-02-18T02:20:21;96077.97;;;0.98;nan
6224;BME280;3145;42.726;23.342;2023-02-18T02:26:10;96077.97;;;0.98;nan
6224;BME280;3145;42.726;23.342;2023-02-18T02:29:00;96075.88;;;1.03;nan
6224;BME280;3145;42.726;23.342;2023-02-18T02:31:46;96070.47;;;1.06;nan
6224;BME280;3145;42.726;23.342;2023-02-18T02:34:38;96074.41;;;0.99;nan
6224;BME280;3145;42.726;23.342;2023-02-18T02:37:13;96063.41;;;1.08;nan
6224;BME280;3145;42.726;23.342;2023-02-18T02:39:49;96023.03;;;0.90;nan
6224;BME280;3145;42.726;23.342;2023-02-18T02:42:26;96051.84;;;1.12;nan
6224;BME280;3145;42.726;23.342;2023-02-18T02:44:59;96052.16;;;1.20;nan
6224;BME280;3145;42.726;23.342;2023-02-18T02:47:32;96064.13;;;1.23;nan
6224;BME280;3145;42.726;23.342;2023-02-18T02:50:08;96046.97;;;1.20;nan
6224;BME280;3145;42.726;23.342;2023-02-18T02:52:40;96059.97;;;1.20;nan
6224;BME280;3145;42.726;23.342;2023-02-18T02:55:10;96081.38;;;0.74;nan
6224;BME280;3145;42.726;23.342;2023-02-18T02:57:43;96088.97;;;0.11;nan
6224;BME280;3145;42.726;23.342;2023-02-18T03:00:12;96088.84;;;0.00;nan
6224;BME280;3145;42.726;23.342;2023-02-18T03:02:49;96090.53;;;-0.13;nan
6224;BME280;3145;42.726;23.342;2023-02-18T03:05:29;96085.13;;;-0.51;nan
6224;BME280;3145;42.726;23.342;2023-02-18T03:08:13;96076.34;;;-0.62;nan
6224;BME280;3145;42.726;23.342;2023-02-18T03:10:50;96089.88;;;-0.57;nan
6224;BME280;3145;42.726;23.342;2023-02-18T03:13:28;96077.25;;;-0.49;nan
6224;BME280;3145;42.726;23.342;2023-02-18T03:16:08;96072.53;;;-0.43;nan
6224;BME280;3145;42.726;23.342;2023-02-18T03:18:39;96083.91;;;-0.31;nan
6224;BME280;3145;42.726;23.342;2023-02-18T03:21:10;96097.34;;;-0.25;nan
6224;BME280;3145;42.726;23.342;2023-02-18T03:23:40;96081.31;;;-0.31;nan
6224;BME280;3145;42.726;23.342;2023-02-18T03:26:10;96102.59;;;-0.12;nan
6224;BME280;3145;42.726;23.342;2023-02-18T03:28:38;96107.78;;;-0.12;nan
6224;BME280;3145;42.726;23.342;2023-02-18T03:31:08;96113.19;;;-0.15;nan
6224;BME280;3145;42.726;23.342;2023-02-18T03:33:39;96111.84;;;-0.08;nan
6224;BME280;3145;42.726;23.342;2023-02-18T03:36:10;96112.78;;;-0.09;nan
6224;BME280;3145;42.726;23.342;2023-02-18T03:38:43;96093.81;;;-0.24;nan
6224;BME280;3145;42.726;23.342;2023-02-18T03:41:11;96110.94;;;-0.07;nan
6224;BME280;3145;42.726;23.342;2023-02-18T03:43:39;96108.53;;;-0.24;nan
6224;BME280;3145;42.726;23.342;2023-02-18T03:46:06;96121.31;;;-0.07;nan
6224;BME280;3145;42.726;23.342;2023-02-18T03:48:33;96114.66;;;-0.11;nan
6224;BME280;3145;42.726;23.342;2023-02-18T03:50:59;96107.59;;;-0.09;nan
6224;BME280;3145;42.726;23.342;2023-02-18T03:53:27;96122.50;;;0.01;nan
6224;BME280;3145;42.726;23.342;2023-02-18T03:55:54;96102.41;;;-0.09;nan
6224;BME280;3145;42.726;23.342;2023-02-18T03:58:21;96115.63;;;0.00;nan
6224;BME280;3145;42.726;23.342;2023-02-18T04:00:47;96101.59;;;-0.10;nan
6224;BME280;3145;42.726;23.342;2023-02-18T04:03:14;96047.09;;;-0.24;nan
6224;BME280;3145;42.726;23.342;2023-02-18T04:05:41;96102.13;;;0.22;nan
6224;BME280;3145;42.726;23.342;2023-02-18T04:08:08;96109.31;;;0.31;nan
6224;BME280;3145;42.726;23.342;2023-02-18T04:10:36;96070.16;;;0.34;nan
6224;BME280;3145;42.726;23.342;2023-02-18T04:13:02;96115.25;;;0.60;nan
6224;BME280;3145;42.726;23.342;2023-02-18T04:15:29;96102.47;;;0.30;nan
6224;BME280;3145;42.726;23.342;2023-02-18T04:17:56;96101.53;;;0.31;nan
6224;BME280;3145;42.726;23.342;2023-02-18T04:20:23;96096.47;;;0.42;nan
6224;BME280;3145;42.726;23.342;2023-02-18T04:22:49;96094.06;;;0.39;nan
6224;BME280;3145;42.726;23.342;2023-02-18T04:25:16;96087.03;;;0.41;nan
6224;BME280;3145;42.726;23.342;2023-02-18T04:27:45;96091.69;;;0.36;nan
6224;BME280;3145;42.726;23.342;2023-02-18T04:30:12;96092.41;;;0.38;nan
6224;BME280;3145;42.726;23.342;2023-02-18T04:32:39;96089.72;;;0.40;nan
6224;BME280;3145;42.726;23.342;2023-02-18T04:35:06;96092.84;;;0.45;nan
6224;BME280;3145;42.726;23.342;2023-02-18T04:37:33;96066.84;;;0.32;nan
6224;BME280;3145;42.726;23.342;2023-02-18T04:39:59;96098.03;;;0.45;nan
6224;BME280;3145;42.726;23.342;2023-02-18T04:42:26;96088.88;;;0.39;nan
6224;BME280;3145;42.726;23.342;2023-02-18T04:44:54;96085.66;;;0.09;nan
6224;BME280;3145;42.726;23.342;2023-02-18T04:47:21;96099.16;;;0.28;nan
6224;BME280;3145;42.726;23.342;2023-02-18T04:49:47;96106.69;;;0.19;nan
6224;BME280;3145;42.726;23.342;2023-02-18T04:52:14;96100.47;;;0.21;nan
6224;BME280;3145;42.726;23.342;2023-02-18T04:54:41;96099.63;;;0.21;nan
6224;BME280;3145;42.726;23.342;2023-02-18T04:57:08;96112.41;;;0.24;nan
6224;BME280;3145;42.726;23.342;2023-02-18T04:59:35;96076.09;;;0.09;nan
6224;BME280;3145;42.726;23.342;2023-02-18T05:02:03;96111.47;;;0.25;nan
6224;BME280;3145;42.726;23.342;2023-02-18T05:04:30;96114.41;;;0.20;nan
6224;BME280;3145;42.726;23.342;2023-02-18T05:06:57;96101.09;;;0.25;nan
6224;BME280;3145;42.726;23.342;2023-02-18T05:09:24;96100.91;;;0.28;nan
6224;BME280;3145;42.726;23.342;2023-02-18T05:11:50;96089.41;;;0.17;nan
6224;BME280;3145;42.726;23.342;2023-02-18T05:14:17;96094.28;;;0.36;nan
6224;BME280;3145;42.726;23.342;2023-02-18T05:16:44;96083.28;;;0.45;nan
6224;BME280;3145;42.726;23.342;2023-02-18T05:19:14;96075.63;;;0.56;nan
6224;BME280;3145;42.726;23.342;2023-02-18T05:21:41;96072.56;;;0.37;nan
6224;BME280;3145;42.726;23.342;2023-02-18T05:24:08;96084.97;;;0.20;nan
6224;BME280;3145;42.726;23.342;2023-02-18T05:26:35;96084.69;;;0.24;nan
6224;BME280;3145;42.726;23.342;2023-02-18T05:29:02;96084.63;;;0.12;nan
6224;BME280;3145;42.726;23.342;2023-02-18T05:31:28;96099.94;;;0.16;nan
6224;BME280;3145;42.726;23.342;2023-02-18T05:33:55;96107.50;;;-0.08;nan
6224;BME280;3145;42.726;23.342;2023-02-18T05:36:23;96113.19;;;-0.15;nan
6224;BME280;3145;42.726;23.342;2023-02-18T05:38:50;96073.72;;;-0.34;nan
6224;BME280;3145;42.726;23.342;2023-02-18T05:41:17;96112.56;;;0.08;nan
6224;BME280;3145;42.726;23.342;2023-02-18T05:43:44;96078.25;;;0.03;nan
6224;BME280;3145;42.726;23.342;2023-02-18T05:46:28;96092.91;;;0.31;nan
6224;BME280;3145;42.726;23.342;2023-02-18T05:48:55;96113.09;;;0.40;nan
6224;BME280;3145;42.726;23.342;2023-02-18T05:51:23;96089.09;;;0.36;nan
6224;BME280;3145;42.726;23.342;2023-02-18T05:53:50;96120.06;;;0.66;nan
6224;BME280;3145;42.726;23.342;2023-02-18T05:56:17;96113.09;;;0.79;nan
6224;BME280;3145;42.726;23.342;2023-02-18T05:58:44;96117.50;;;0.91;nan
6224;BME280;3145;42.726;23.342;2023-02-18T06:01:11;96112.28;;;1.03;nan
6224;BME280;3145;42.726;23.342;2023-02-18T06:03:37;96037.81;;;0.77;nan
6224;BME280;3145;42.726;23.342;2023-02-18T06:06:05;96100.22;;;1.27;nan
6224;BME280;3145;42.726;23.342;2023-02-18T06:08:33;96115.22;;;1.36;nan
6224;BME280;3145;42.726;23.342;2023-02-18T06:11:00;96119.41;;;1.51;nan
6224;BME280;3145;42.726;23.342;2023-02-18T06:13:27;96114.06;;;1.53;nan
6224;BME280;3145;42.726;23.342;2023-02-18T06:15:54;96103.63;;;1.65;nan
6224;BME280;3145;42.726;23.342;2023-02-18T06:18:21;96087.31;;;1.63;nan
6224;BME280;3145;42.726;23.342;2023-02-18T06:20:48;96108.50;;;1.82;nan
6224;BME280;3145;42.726;23.342;2023-02-18T06:23:15;96093.69;;;1.95;nan
6224;BME280;3145;42.726;23.342;2023-02-18T06:25:43;96096.78;;;2.00;nan
6224;BME280;3145;42.726;23.342;2023-02-18T06:28:09;96093.09;;;2.15;nan
6224;BME280;3145;42.726;23.342;2023-02-18T06:30:36;96070.28;;;2.06;nan
6224;BME280;3145;42.726;23.342;2023-02-18T06:33:03;96108.22;;;2.57;nan
6224;BME280;3145;42.726;23.342;2023-02-18T06:35:30;96086.66;;;2.55;nan
6224;BME280;3145;42.726;23.342;2023-02-18T06:37:57;96099.78;;;2.77;nan
6224;BME280;3145;42.726;23.342;2023-02-18T06:40:24;96084.81;;;2.68;nan
6224;BME280;3145;42.726;23.342;2023-02-18T06:42:52;96114.19;;;2.94;nan
6224;BME280;3145;42.726;23.342;2023-02-18T06:45:18;96110.66;;;3.06;nan
6224;BME280;3145;42.726;23.342;2023-02-18T06:47:45;96109.94;;;3.04;nan
6224;BME280;3145;42.726;23.342;2023-02-18T06:50:12;96099.66;;;3.24;nan
6224;BME280;3145;42.726;23.342;2023-02-18T06:52:39;96097.56;;;3.40;nan
6224;BME280;3145;42.726;23.342;2023-02-18T06:55:07;96106.00;;;3.44;nan
6224;BME280;3145;42.726;23.342;2023-02-18T06:57:34;96104.09;;;3.46;nan
6224;BME280;3145;42.726;23.342;2023-02-18T07:00:03;96113.59;;;3.36;nan
6224;BME280;3145;42.726;23.342;2023-02-18T07:02:30;96090.44;;;3.31;nan
6224;BME280;3145;42.726;23.342;2023-02-18T07:04:56;96111.09;;;3.56;nan
6224;BME280;3145;42.726;23.342;2023-02-18T07:07:23;96116.81;;;3.83;nan
6224;BME280;3145;42.726;23.342;2023-02-18T07:09:50;96095.66;;;3.97;nan
6224;BME280;3145;42.726;23.342;2023-02-18T07:12:16;96090.03;;;4.13;nan
6224;BME280;3145;42.726;23.342;2023-02-18T07:14:43;96093.78;;;4.31;nan
6224;BME280;3145;42.726;23.342;2023-02-18T07:17:11;96074.91;;;4.38;nan
6224;BME280;3145;42.726;23.342;2023-02-18T07:19:39;96080.38;;;4.67;nan
6224;BME280;3145;42.726;23.342;2023-02-18T07:22:06;96080.63;;;4.84;nan
6224;BME280;3145;42.726;23.342;2023-02-18T07:24:32;96055.47;;;4.72;nan
6224;BME280;3145;42.726;23.342;2023-02-18T07:26:59;96082.00;;;4.99;nan
6224;BME280;3145;42.726;23.342;2023-02-18T07:29:26;96101.84;;;5.02;nan
6224;BME280;3145;42.726;23.342;2023-02-18T07:31:53;96066.63;;;4.85;nan
6224;BME280;3145;42.726;23.342;2023-02-18T07:34:21;96101.75;;;5.24;nan
6224;BME280;3145;42.726;23.342;2023-02-18T07:36:48;96104.88;;;5.39;nan
6224;BME280;3145;42.726;23.342;2023-02-18T07:39:14;96043.81;;;5.18;nan
6224;BME280;3145;42.726;23.342;2023-02-18T07:41:45;96071.34;;;5.63;nan
6224;BME280;3145;42.726;23.342;2023-02-18T07:44:11;96097.44;;;5.85;nan
6224;BME280;3145;42.726;23.342;2023-02-18T07:46:38;96090.84;;;5.90;nan
6224;BME280;3145;42.726;23.342;2023-02-18T07:49:06;96077.09;;;6.07;nan
6224;BME280;3145;42.726;23.342;2023-02-18T07:51:34;96092.56;;;6.20;nan
6224;BME280;3145;42.726;23.342;2023-02-18T07:54:03;96090.69;;;6.31;nan
6224;BME280;3145;42.726;23.342;2023-02-18T07:56:34;96090.69;;;6.31;nan
6224;BME280;3145;42.726;23.342;2023-02-18T07:59:01;96090.44;;;6.63;nan
6224;BME280;3145;42.726;23.342;2023-02-18T08:01:28;96027.16;;;6.66;nan
6224;BME280;3145;42.726;23.342;2023-02-18T08:03:55;96084.56;;;7.64;nan
6224;BME280;3145;42.726;23.342;2023-02-18T08:06:25;96069.25;;;8.23;nan
6224;BME280;3145;42.726;23.342;2023-02-18T08:08:55;95986.06;;;8.30;nan
6224;BME280;3145;42.726;23.342;2023-02-18T08:11:21;96063.91;;;9.55;nan
6224;BME280;3145;42.726;23.342;2023-02-18T08:13:48;96059.28;;;10.08;nan
6224;BME280;3145;42.726;23.342;2023-02-18T08:16:15;96073.56;;;9.98;nan
6224;BME280;3145;42.726;23.342;2023-02-18T08:18:42;96087.84;;;10.13;nan
6224;BME280;3145;42.726;23.342;2023-02-18T08:21:09;96084.19;;;10.47;nan
6224;BME280;3145;42.726;23.342;2023-02-18T08:23:36;96073.63;;;10.47;nan
6224;BME280;3145;42.726;23.342;2023-02-18T08:26:04;96071.94;;;10.30;nan
6224;BME280;3145;42.726;23.342;2023-02-18T08:28:31;96070.16;;;10.05;nan
6224;BME280;3145;42.726;23.342;2023-02-18T08:30:58;96081.25;;;9.40;nan
6224;BME280;3145;42.726;23.342;2023-02-18T08:33:25;96081.81;;;9.51;nan
6224;BME280;3145;42.726;23.342;2023-02-18T08:35:53;96071.22;;;9.18;nan
6224;BME280;3145;42.726;23.342;2023-02-18T08:38:20;96069.38;;;9.36;nan
6224;BME280;3145;42.726;23.342;2023-02-18T08:40:47;96055.72;;;9.40;nan
6224;BME280;3145;42.726;23.342;2023-02-18T08:43:16;96073.53;;;9.64;nan
6224;BME280;3145;42.726;23.342;2023-02-18T08:45:43;96050.75;;;9.63;nan
6224;BME280;3145;42.726;23.342;2023-02-18T08:48:12;96074.84;;;9.94;nan
6224;BME280;3145;42.726;23.342;2023-02-18T08:50:39;96071.09;;;10.04;nan
6224;BME280;3145;42.726;23.342;2023-02-18T08:53:05;96053.78;;;10.02;nan
6224;BME280;3145;42.726;23.342;2023-02-18T08:55:33;96072.16;;;10.11;nan
6224;BME280;3145;42.726;23.342;2023-02-18T08:58:03;96062.31;;;9.62;nan
6224;BME280;3145;42.726;23.342;2023-02-18T09:00:32;96077.03;;;9.47;nan
6224;BME280;3145;42.726;23.342;2023-02-18T09:02:59;96067.47;;;9.72;nan
6224;BME280;3145;42.726;23.342;2023-02-18T09:05:25;96062.44;;;9.86;nan
6224;BME280;3145;42.726;23.342;2023-02-18T09:07:53;96069.09;;;9.98;nan
6224;BME280;3145;42.726;23.342;2023-02-18T09:10:20;96056.88;;;10.31;nan
6224;BME280;3145;42.726;23.342;2023-02-18T09:12:46;96060.63;;;10.62;nan
6224;BME280;3145;42.726;23.342;2023-02-18T09:15:13;96064.66;;;10.90;nan
6224;BME280;3145;42.726;23.342;2023-02-18T09:17:41;96063.19;;;11.19;nan
6224;BME280;3145;42.726;23.342;2023-02-18T09:20:09;96057.41;;;11.40;nan
6224;BME280;3145;42.726;23.342;2023-02-18T09:22:36;96060.22;;;11.70;nan
6224;BME280;3145;42.726;23.342;2023-02-18T09:25:03;96059.84;;;11.89;nan
6224;BME280;3145;42.726;23.342;2023-02-18T09:27:30;96056.75;;;12.32;nan
6224;BME280;3145;42.726;23.342;2023-02-18T09:29:56;96051.44;;;12.63;nan
6224;BME280;3145;42.726;23.342;2023-02-18T09:32:23;96045.69;;;13.12;nan
6224;BME280;3145;42.726;23.342;2023-02-18T09:34:51;96036.16;;;13.77;nan
6224;BME280;3145;42.726;23.342;2023-02-18T09:37:18;96042.50;;;14.06;nan
6224;BME280;3145;42.726;23.342;2023-02-18T09:39:44;96014.84;;;14.29;nan
6224;BME280;3145;42.726;23.342;2023-02-18T09:42:16;96032.94;;;14.69;nan
6224;BME280;3145;42.726;23.342;2023-02-18T09:44:46;96050.88;;;14.96;nan
6224;BME280;3145;42.726;23.342;2023-02-18T09:47:16;96048.28;;;15.24;nan
6224;BME280;3145;42.726;23.342;2023-02-18T09:49:47;96047.53;;;15.51;nan
6224;BME280;3145;42.726;23.342;2023-02-18T09:52:18;96035.75;;;15.39;nan
6224;BME280;3145;42.726;23.342;2023-02-18T09:54:47;96027.88;;;15.31;nan
6224;BME280;3145;42.726;23.342;2023-02-18T09:57:21;96035.91;;;15.16;nan
6224;BME280;3145;42.726;23.342;2023-02-18T09:59:52;96030.44;;;15.03;nan
6224;BME280;3145;42.726;23.342;2023-02-18T10:02:22;96031.16;;;14.91;nan
6224;BME280;3145;42.726;23.342;2023-02-18T10:04:50;96016.56;;;15.08;nan
6224;BME280;3145;42.726;23.342;2023-02-18T10:07:22;96021.09;;;15.49;nan
6224;BME280;3145;42.726;23.342;2023-02-18T10:09:51;96015.19;;;15.81;nan
6224;BME280;3145;42.726;23.342;2023-02-18T10:12:21;96010.09;;;16.14;nan
6224;BME280;3145;42.726;23.342;2023-02-18T10:14:50;96006.38;;;16.15;nan
6224;BME280;3145;42.726;23.342;2023-02-18T10:17:17;95956.41;;;16.30;nan
6224;BME280;3145;42.726;23.342;2023-02-18T10:19:47;95995.94;;;16.54;nan
6224;BME280;3145;42.726;23.342;2023-02-18T10:22:15;95992.94;;;16.83;nan
6224;BME280;3145;42.726;23.342;2023-02-18T10:24:46;95982.91;;;16.91;nan
6224;BME280;3145;42.726;23.342;2023-02-18T10:27:18;95980.88;;;17.06;nan
6224;BME280;3145;42.726;23.342;2023-02-18T10:29:46;95935.81;;;16.58;nan
6224;BME280;3145;42.726;23.342;2023-02-18T10:32:19;95938.50;;;16.64;nan
6224;BME280;3145;42.726;23.342;2023-02-18T10:34:49;95974.75;;;17.19;nan
6224;BME280;3145;42.726;23.342;2023-02-18T10:37:41;95978.00;;;17.08;nan
6224;BME280;3145;42.726;23.342;2023-02-18T10:40:17;95976.38;;;17.20;nan
6224;BME280;3145;42.726;23.342;2023-02-18T10:42:58;95976.84;;;17.43;nan
6224;BME280;3145;42.726;23.342;2023-02-18T10:45:32;95974.53;;;17.40;nan
6224;BME280;3145;42.726;23.342;2023-02-18T10:48:22;95944.97;;;17.48;nan
6224;BME280;3145;42.726;23.342;2023-02-18T10:50:54;95966.97;;;17.63;nan
6224;BME280;3145;42.726;23.342;2023-02-18T10:53:31;95955.06;;;17.46;nan
6224;BME280;3145;42.726;23.342;2023-02-18T10:56:01;95938.59;;;17.68;nan
6224;BME280;3145;42.726;23.342;2023-02-18T10:58:33;95959.38;;;17.66;nan
6224;BME280;3145;42.726;23.342;2023-02-18T11:01:03;95953.81;;;17.42;nan
6224;BME280;3145;42.726;23.342;2023-02-18T11:03:39;95926.66;;;16.99;nan
6224;BME280;3145;42.726;23.342;2023-02-18T11:06:15;95945.56;;;17.11;nan
6224;BME280;3145;42.726;23.342;2023-02-18T11:08:45;95942.09;;;17.17;nan
6224;BME280;3145;42.726;23.342;2023-02-18T11:11:17;95925.81;;;17.18;nan
6224;BME280;3145;42.726;23.342;2023-02-18T11:13:51;95930.38;;;17.18;nan
6224;BME280;3145;42.726;23.342;2023-02-18T11:16:20;95904.59;;;16.65;nan
6224;BME280;3145;42.726;23.342;2023-02-18T11:18:47;95918.78;;;16.72;nan
6224;BME280;3145;42.726;23.342;2023-02-18T11:21:25;95908.50;;;16.56;nan
6224;BME280;3145;42.726;23.342;2023-02-18T11:23:55;95918.88;;;16.31;nan
6224;BME280;3145;42.726;23.342;2023-02-18T11:26:27;95901.81;;;16.26;nan
6224;BME280;3145;42.726;23.342;2023-02-18T11:28:59;95904.66;;;16.18;nan
6224;BME280;3145;42.726;23.342;2023-02-18T11:31:38;95901.81;;;16.19;nan
6224;BME280;3145;42.726;23.342;2023-02-18T11:34:14;95833.16;;;15.87;nan
6224;BME280;3145;42.726;23.342;2023-02-18T11:36:41;95872.69;;;16.31;nan
6224;BME280;3145;42.726;23.342;2023-02-18T11:39:17;95907.78;;;16.34;nan
6224;BME280;3145;42.726;23.342;2023-02-18T11:41:48;95901.09;;;16.51;nan
6224;BME280;3145;42.726;23.342;2023-02-18T11:44:21;95882.00;;;16.48;nan
6224;BME280;3145;42.726;23.342;2023-02-18T11:47:00;95873.19;;;16.54;nan
6224;BME280;3145;42.726;23.342;2023-02-18T11:49:27;95888.03;;;16.89;nan
6224;BME280;3145;42.726;23.342;2023-02-18T11:52:03;95867.91;;;16.93;nan
6224;BME280;3145;42.726;23.342;2023-02-18T11:54:30;95857.00;;;16.88;nan
6224;BME280;3145;42.726;23.342;2023-02-18T11:57:03;95841.38;;;16.78;nan
6224;BME280;3145;42.726;23.342;2023-02-18T11:59:32;95846.53;;;17.06;nan
6224;BME280;3145;42.726;23.342;2023-02-18T12:02:23;95850.63;;;17.28;nan
6224;BME280;3145;42.726;23.342;2023-02-18T12:04:57;95858.84;;;17.20;nan
6224;BME280;3145;42.726;23.342;2023-02-18T12:07:28;95855.16;;;17.34;nan
6224;BME280;3145;42.726;23.342;2023-02-18T12:09:59;95855.56;;;17.44;nan
6224;BME280;3145;42.726;23.342;2023-02-18T12:12:30;95848.94;;;17.40;nan
6224;BME280;3145;42.726;23.342;2023-02-18T12:14:59;95854.94;;;17.55;nan
6224;BME280;3145;42.726;23.342;2023-02-18T12:17:40;95846.09;;;17.54;nan
6224;BME280;3145;42.726;23.342;2023-02-18T12:20:27;95844.88;;;17.44;nan
6224;BME280;3145;42.726;23.342;2023-02-18T12:23:04;95842.41;;;17.23;nan
6224;BME280;3145;42.726;23.342;2023-02-18T12:25:40;95748.81;;;16.66;nan
6224;BME280;3145;42.726;23.342;2023-02-18T12:28:27;95821.47;;;17.13;nan
6224;BME280;3145;42.726;23.342;2023-02-18T12:31:12;95817.34;;;17.11;nan
6224;BME280;3145;42.726;23.342;2023-02-18T12:33:55;95790.69;;;16.91;nan
6224;BME280;3145;42.726;23.342;2023-02-18T12:36:30;95764.19;;;16.90;nan
6224;BME280;3145;42.726;23.342;2023-02-18T12:39:08;95799.25;;;17.26;nan
6224;BME280;3145;42.726;23.342;2023-02-18T12:42:09;95798.66;;;17.30;nan
6224;BME280;3145;42.726;23.342;2023-02-18T12:44:44;95793.91;;;17.26;nan
6224;BME280;3145;42.726;23.342;2023-02-18T12:47:29;95763.75;;;17.06;nan
6224;BME280;3145;42.726;23.342;2023-02-18T12:50:15;95788.97;;;17.29;nan
6224;BME280;3145;42.726;23.342;2023-02-18T12:52:58;95746.88;;;17.12;nan
6224;BME280;3145;42.726;23.342;2023-02-18T12:55:37;95754.06;;;17.18;nan
6224;BME280;3145;42.726;23.342;2023-02-18T12:58:15;95785.06;;;17.45;nan
6224;BME280;3145;42.726;23.342;2023-02-18T13:01:07;95783.00;;;17.34;nan
6224;BME280;3145;42.726;23.342;2023-02-18T13:03:49;95784.03;;;17.39;nan
6224;BME280;3145;42.726;23.342;2023-02-18T13:09:22;95788.13;;;17.48;nan
6224;BME280;3145;42.726;23.342;2023-02-18T13:11:57;95783.19;;;17.52;nan
6224;BME280;3145;42.726;23.342;2023-02-18T13:14:29;95783.59;;;17.36;nan
6224;BME280;3145;42.726;23.342;2023-02-18T13:17:00;95756.53;;;17.26;nan
6224;BME280;3145;42.726;23.342;2023-02-18T13:19:31;95749.97;;;17.15;nan
6224;BME280;3145;42.726;23.342;2023-02-18T13:22:03;95725.75;;;16.97;nan
6224;BME280;3145;42.726;23.342;2023-02-18T13:24:33;95775.44;;;17.24;nan
6224;BME280;3145;42.726;23.342;2023-02-18T13:27:12;95782.81;;;17.16;nan
6224;BME280;3145;42.726;23.342;2023-02-18T13:29:46;95782.81;;;17.16;nan
6224;BME280;3145;42.726;23.342;2023-02-18T13:32:23;95776.69;;;17.09;nan
6224;BME280;3145;42.726;23.342;2023-02-18T13:34:59;95788.84;;;16.85;nan
6224;BME280;3145;42.726;23.342;2023-02-18T13:37:32;95750.06;;;16.63;nan
6224;BME280;3145;42.726;23.342;2023-02-18T13:40:01;95781.88;;;16.78;nan
6224;BME280;3145;42.726;23.342;2023-02-18T13:42:34;95779.00;;;16.73;nan
6224;BME280;3145;42.726;23.342;2023-02-18T13:45:05;95777.94;;;16.61;nan
6224;BME280;3145;42.726;23.342;2023-02-18T13:47:39;95773.44;;;16.55;nan
6224;BME280;3145;42.726;23.342;2023-02-18T13:50:24;95773.84;;;16.45;nan
6224;BME280;3145;42.726;23.342;2023-02-18T13:52:58;95776.72;;;16.50;nan
6224;BME280;3145;42.726;23.342;2023-02-18T13:55:33;95777.91;;;16.35;nan
6224;BME280;3145;42.726;23.342;2023-02-18T13:58:01;95770.09;;;16.27;nan
6224;BME280;3145;42.726;23.342;2023-02-18T14:00:34;95768.22;;;16.21;nan
6224;BME280;3145;42.726;23.342;2023-02-18T14:03:20;95768.47;;;16.19;nan